createdAt,value
2022-08-10T00:00:22.503Z,82.80
2022-08-10T00:01:55.516Z,82.80
2022-08-10T00:03:28.340Z,83.80
2022-08-10T00:05:00.162Z,83.30
2022-08-10T00:06:33.424Z,83.50
2022-08-10T00:08:06.723Z,83.40
2022-08-10T00:09:50.002Z,83.30
2022-08-10T00:11:24.476Z,83.70
2022-08-10T00:12:57.432Z,83.80
2022-08-10T00:14:30.355Z,83.90
2022-08-10T00:16:03.416Z,83.90
2022-08-10T00:17:35.295Z,84.30
2022-08-10T00:19:08.083Z,84.30
2022-08-10T00:20:42.803Z,84.60
2022-08-10T00:22:16.990Z,84.20
2022-08-10T00:23:49.964Z,84.20
2022-08-10T00:25:23.117Z,84.50
2022-08-10T00:27:50.161Z,84.50
2022-08-10T00:28:48.602Z,84.70
2022-08-10T00:30:22.602Z,84.60
2022-08-10T00:31:58.965Z,85.10
2022-08-10T00:33:32.324Z,84.90
2022-08-10T00:35:04.963Z,85.10
2022-08-10T00:36:37.792Z,85.20
2022-08-10T00:38:10.705Z,84.90
2022-08-10T00:39:43.872Z,85.10
2022-08-10T00:41:18.427Z,85.50
2022-08-10T00:42:51.199Z,85.60
2022-08-10T00:44:23.935Z,85.20
2022-08-10T00:45:59.874Z,85.70
2022-08-10T00:47:36.668Z,85.90
2022-08-10T00:49:10.565Z,85.60
2022-08-10T00:50:43.429Z,86.20
2022-08-10T00:52:17.004Z,86.20
2022-08-10T00:53:49.932Z,86.20
2022-08-10T00:55:22.782Z,86.30
2022-08-10T00:57:17.987Z,86.40
2022-08-10T00:58:49.075Z,86.40
2022-08-10T01:00:21.889Z,86.50
2022-08-10T01:02:08.405Z,86.40
2022-08-10T01:04:36.342Z,86.50
2022-08-10T01:05:51.682Z,86.40
2022-08-10T01:07:38.491Z,86.60
2022-08-10T01:09:16.995Z,86.60
2022-08-10T01:11:00.604Z,86.90
2022-08-10T01:12:41.728Z,86.90
2022-08-10T01:14:22.136Z,86.80
2022-08-10T01:16:01.223Z,87.00
2022-08-10T01:17:50.619Z,86.70
2022-08-10T01:19:47.498Z,86.70
2022-08-10T01:21:57.274Z,86.50
2022-08-10T01:24:03.803Z,87.20
2022-08-10T01:26:12.194Z,87.20
2022-08-10T01:28:09.413Z,87.30
2022-08-10T01:30:02.602Z,86.80
2022-08-10T01:31:41.287Z,87.00
2022-08-10T01:33:31.810Z,87.30
2022-08-10T01:35:22.046Z,86.90
2022-08-10T01:37:00.569Z,87.10
2022-08-10T01:38:36.055Z,87.00
2022-08-10T01:40:13.486Z,86.90
2022-08-10T01:41:53.173Z,87.30
2022-08-10T01:43:28.887Z,87.40
2022-08-10T01:45:04.812Z,87.20
2022-08-10T01:46:40.040Z,86.90
2022-08-10T01:48:31.832Z,87.30
2022-08-10T01:50:08.095Z,87.60
2022-08-10T01:51:45.244Z,87.40
2022-08-10T01:53:21.707Z,87.20
2022-08-10T01:54:56.147Z,87.40
2022-08-10T01:56:32.543Z,87.90
2022-08-10T01:58:06.372Z,87.90
2022-08-10T01:59:42.812Z,87.70
2022-08-10T02:01:33.450Z,87.80
2022-08-10T02:03:08.712Z,88.00
2022-08-10T02:04:44.354Z,87.90
2022-08-10T02:06:18.458Z,88.00
2022-08-10T02:07:52.430Z,88.10
2022-08-10T02:09:28.212Z,88.30
2022-08-10T02:11:02.536Z,88.30
2022-08-10T02:12:37.808Z,88.60
2022-08-10T02:14:14.031Z,88.20
2022-08-10T02:16:01.137Z,88.40
2022-08-10T02:17:58.211Z,88.70
2022-08-10T02:19:36.223Z,88.80
2022-08-10T02:21:10.035Z,88.70
2022-08-10T02:22:44.071Z,88.60
2022-08-10T02:24:18.828Z,88.40
2022-08-10T02:25:53.274Z,89.20
2022-08-10T02:27:28.263Z,90.00
2022-08-10T02:29:01.802Z,89.10
2022-08-10T02:30:35.674Z,89.20
2022-08-10T02:32:10.894Z,89.20
2022-08-10T02:33:57.141Z,89.30
2022-08-10T02:35:53.733Z,89.70
2022-08-10T02:37:27.630Z,89.70
2022-08-10T02:39:03.775Z,89.70
2022-08-10T02:45:12.377Z,89.80
2022-08-10T02:45:21.568Z,90.00
2022-08-10T02:45:23.750Z,89.70
2022-08-10T02:46:40.327Z,89.90
2022-08-10T02:48:16.520Z,90.00
2022-08-10T02:49:56.619Z,90.00
2022-08-10T02:52:06.891Z,90.10
2022-08-10T02:53:49.518Z,90.20
2022-08-10T02:55:32.882Z,90.10
2022-08-10T02:57:10.855Z,90.00
2022-08-10T02:58:46.806Z,90.30
2022-08-10T03:00:18.916Z,90.20
2022-08-10T03:01:56.675Z,90.20
2022-08-10T03:03:33.865Z,90.40
2022-08-10T03:05:10.441Z,90.30
2022-08-10T03:06:47.766Z,90.50
2022-08-10T03:08:22.836Z,90.60
2022-08-10T03:09:56.786Z,90.60
2022-08-10T03:12:35.560Z,90.50
2022-08-10T03:13:25.457Z,90.50
2022-08-10T03:14:59.832Z,90.60
2022-08-10T03:16:34.996Z,90.70
2022-08-10T03:18:09.955Z,90.80
2022-08-10T03:20:35.314Z,90.70
2022-08-10T03:21:39.454Z,90.90
2022-08-10T03:23:14.987Z,91.00
2022-08-10T03:24:49.583Z,90.80
2022-08-10T03:26:22.706Z,91.10
2022-08-10T03:27:56.442Z,90.90
2022-08-10T03:30:32.622Z,91.10
2022-08-10T03:31:24.983Z,91.10
2022-08-10T03:32:58.464Z,91.00
2022-08-10T03:34:33.846Z,91.20
2022-08-10T03:36:40.397Z,91.10
2022-08-10T03:38:01.029Z,91.30
2022-08-10T03:39:33.886Z,91.30
2022-08-10T03:41:09.522Z,91.40
2022-08-10T03:42:42.968Z,91.40
2022-08-10T03:44:21.628Z,91.40
2022-08-10T03:45:56.619Z,91.40
2022-08-10T03:47:31.097Z,91.50
2022-08-10T03:49:06.107Z,91.50
2022-08-10T03:50:51.105Z,91.50
2022-08-10T03:52:25.533Z,91.60
2022-08-10T03:54:05.128Z,91.40
2022-08-10T03:56:29.318Z,91.60
2022-08-10T03:57:32.791Z,91.50
2022-08-10T03:59:07.798Z,91.50
2022-08-10T04:00:41.310Z,91.50
2022-08-10T04:02:44.273Z,91.60
2022-08-10T04:04:11.597Z,91.70
2022-08-10T04:05:47.441Z,91.60
2022-08-10T04:07:20.269Z,91.80
2022-08-10T04:08:53.978Z,91.80
2022-08-10T04:10:28.960Z,91.70
2022-08-10T04:12:01.795Z,91.70
2022-08-10T04:13:34.551Z,91.80
2022-08-10T04:15:08.295Z,91.80
2022-08-10T04:16:41.068Z,92.10
2022-08-10T04:18:13.818Z,91.60
2022-08-10T04:19:49.974Z,91.80
2022-08-10T04:21:27.632Z,91.80
2022-08-10T04:23:04.371Z,91.80
2022-08-10T04:24:40.267Z,91.80
2022-08-10T04:26:15.187Z,92.00
2022-08-10T04:27:48.323Z,91.90
2022-08-10T04:29:20.486Z,91.90
2022-08-10T04:30:55.587Z,92.00
2022-08-10T04:32:31.272Z,91.90
2022-08-10T04:34:08.423Z,92.10
2022-08-10T04:35:42.579Z,92.10
2022-08-10T04:37:16.993Z,92.00
2022-08-10T04:38:52.323Z,92.00
2022-08-10T04:40:30.453Z,92.00
2022-08-10T04:42:05.492Z,92.10
2022-08-10T04:43:38.539Z,92.20
2022-08-10T04:45:13.894Z,92.30
2022-08-10T04:46:57.617Z,92.30
2022-08-10T04:48:43.696Z,92.30
2022-08-10T04:50:32.326Z,92.30
2022-08-10T04:52:05.826Z,92.50
2022-08-10T04:54:04.597Z,92.60
2022-08-10T04:55:31.419Z,92.60
2022-08-10T04:57:06.129Z,92.80
2022-08-10T04:58:38.923Z,92.90
2022-08-10T05:00:18.077Z,92.60
2022-08-10T05:02:29.501Z,92.70
2022-08-10T05:04:37.031Z,92.70
2022-08-10T05:05:37.584Z,93.00
2022-08-10T05:07:16.076Z,93.10
2022-08-10T05:08:50.133Z,93.10
2022-08-10T05:10:22.905Z,93.00
2022-08-10T05:11:55.731Z,93.10
2022-08-10T05:13:30.127Z,93.10
2022-08-10T05:15:02.904Z,93.00
2022-08-10T05:16:34.723Z,92.90
2022-08-10T05:18:09.774Z,93.10
2022-08-10T05:20:02.251Z,93.20
2022-08-10T05:22:03.175Z,93.10
2022-08-10T05:23:29.623Z,93.00
2022-08-10T05:25:01.443Z,93.20
2022-08-10T05:26:36.879Z,93.10
2022-08-10T05:28:11.955Z,93.00
2022-08-10T05:29:46.088Z,93.30
2022-08-10T05:31:35.667Z,93.00
2022-08-10T05:33:09.138Z,93.10
2022-08-10T05:34:42.189Z,92.90
2022-08-10T05:36:15.607Z,93.00
2022-08-10T05:38:11.879Z,93.00
2022-08-10T05:39:43.115Z,93.10
2022-08-10T05:41:16.763Z,93.10
2022-08-10T05:42:50.292Z,93.20
2022-08-10T05:44:23.457Z,93.00
2022-08-10T05:46:18.905Z,92.90
2022-08-10T05:48:54.750Z,93.00
2022-08-10T05:49:43.738Z,93.10
2022-08-10T05:51:16.171Z,93.00
2022-08-10T05:52:52.239Z,93.00
2022-08-10T05:54:26.807Z,93.00
2022-08-10T05:55:59.752Z,93.10
2022-08-10T05:57:33.452Z,92.90
2022-08-10T05:59:06.230Z,92.90
2022-08-10T06:00:48.375Z,92.80
2022-08-10T06:02:35.470Z,92.70
2022-08-10T06:04:10.276Z,92.80
2022-08-10T06:05:45.589Z,92.50
2022-08-10T06:07:21.959Z,92.70
2022-08-10T06:08:55.080Z,92.50
2022-08-10T06:10:32.358Z,92.40
2022-08-10T06:12:26.101Z,92.50
2022-08-10T06:14:19.735Z,92.40
2022-08-10T06:16:04.374Z,92.40
2022-08-10T06:17:39.255Z,92.50
2022-08-10T06:19:15.268Z,92.40
2022-08-10T06:20:48.725Z,92.20
2022-08-10T06:22:21.716Z,92.10
2022-08-10T06:23:55.912Z,92.10
2022-08-10T06:26:10.903Z,92.20
2022-08-10T06:27:34.584Z,92.20
2022-08-10T06:29:10.848Z,92.10
2022-08-10T06:30:46.182Z,91.90
2022-08-10T06:32:25.315Z,91.80
2022-08-10T06:34:00.788Z,91.70
2022-08-10T06:35:36.694Z,91.60
2022-08-10T06:37:17.556Z,91.50
2022-08-10T06:38:51.749Z,91.70
2022-08-10T06:40:26.872Z,91.40
2022-08-10T06:42:16.012Z,91.20
2022-08-10T06:43:58.632Z,91.30
2022-08-10T06:45:36.187Z,91.30
2022-08-10T06:47:11.898Z,91.10
2022-08-10T06:48:51.404Z,91.00
2022-08-10T06:50:44.886Z,90.90
2022-08-10T06:52:20.440Z,91.00
2022-08-10T06:53:56.090Z,90.80
2022-08-10T06:55:49.659Z,90.70
2022-08-10T06:57:27.959Z,90.70
2022-08-10T06:59:06.411Z,90.60
2022-08-10T07:00:42.121Z,90.80
2022-08-10T07:02:21.649Z,90.50
2022-08-10T07:03:59.796Z,90.50
2022-08-10T07:05:38.827Z,90.40
2022-08-10T07:07:17.747Z,90.40
2022-08-10T07:08:53.878Z,90.30
2022-08-10T07:10:41.178Z,90.00
2022-08-10T07:12:20.673Z,89.60
2022-08-10T07:14:15.289Z,89.10
2022-08-10T07:15:57.288Z,88.60
2022-08-10T07:17:39.109Z,88.10
2022-08-10T07:19:14.363Z,87.20
2022-08-10T07:20:50.663Z,86.50
2022-08-10T07:23:54.138Z,87.40
2022-08-10T07:24:19.496Z,86.00
2022-08-10T07:25:54.375Z,85.70
2022-08-10T07:27:27.918Z,85.60
2022-08-10T07:29:26.347Z,85.70
2022-08-10T07:31:49.308Z,85.30
2022-08-10T07:33:12.472Z,84.70
2022-08-10T07:34:47.947Z,85.00
2022-08-10T07:36:23.742Z,84.60
2022-08-10T07:37:59.086Z,83.60
2022-08-10T07:40:02.088Z,84.00
2022-08-10T07:41:30.580Z,83.50
2022-08-10T07:43:04.071Z,83.40
2022-08-10T07:44:40.540Z,82.30
2022-08-10T07:46:15.923Z,81.80
2022-08-10T07:47:56.822Z,82.10
2022-08-10T07:49:35.299Z,82.40
2022-08-10T07:51:10.063Z,82.00
2022-08-10T07:52:46.811Z,82.80
2022-08-10T07:54:21.614Z,82.50
2022-08-10T07:56:04.107Z,82.70
2022-08-10T07:57:45.374Z,81.70
2022-08-10T07:59:23.862Z,82.30
2022-08-10T08:00:58.302Z,81.80
2022-08-10T08:02:35.877Z,81.70
2022-08-10T08:04:13.243Z,80.70
2022-08-10T08:05:57.880Z,80.70
2022-08-10T08:07:36.007Z,81.30
2022-08-10T08:09:10.933Z,81.60
2022-08-10T08:10:45.084Z,80.30
2022-08-10T08:12:18.714Z,79.50
2022-08-10T08:13:53.212Z,80.90
2022-08-10T08:16:20.240Z,80.20
2022-08-10T08:17:22.090Z,80.70
2022-08-10T08:19:27.960Z,80.50
2022-08-10T08:21:01.887Z,80.20
2022-08-10T08:24:06.198Z,78.50
2022-08-10T08:24:34.578Z,78.40
2022-08-10T08:26:09.007Z,78.00
2022-08-10T08:27:47.836Z,77.80
2022-08-10T08:29:23.228Z,78.80
2022-08-10T08:30:57.226Z,77.50
2022-08-10T08:32:33.954Z,78.30
2022-08-10T08:34:07.856Z,77.20
2022-08-10T08:35:41.800Z,75.80
2022-08-10T08:37:18.833Z,76.80
2022-08-10T08:39:12.242Z,77.50
2022-08-10T08:40:55.167Z,76.30
2022-08-10T08:42:54.857Z,75.80
2022-08-10T08:44:40.828Z,75.40
2022-08-10T08:46:28.708Z,76.00
2022-08-10T08:48:22.441Z,75.80
2022-08-10T08:50:21.619Z,75.80
2022-08-10T08:52:09.211Z,76.20
2022-08-10T08:54:04.251Z,75.10
2022-08-10T08:56:05.077Z,75.70
2022-08-10T08:57:50.195Z,74.70
2022-08-10T08:59:38.466Z,74.40
2022-08-10T09:01:24.533Z,73.40
2022-08-10T09:03:39.701Z,73.70
2022-08-10T09:05:59.745Z,73.40
2022-08-10T09:08:06.930Z,73.30
2022-08-10T09:10:04.344Z,73.40
2022-08-10T09:11:53.963Z,73.50
2022-08-10T09:13:32.342Z,74.40
2022-08-10T09:15:09.605Z,72.60
2022-08-10T09:17:11.148Z,74.00
2022-08-10T09:18:52.181Z,74.20
2022-08-10T09:20:33.191Z,75.40
2022-08-10T09:22:17.983Z,74.40
2022-08-10T09:24:04.646Z,75.00
2022-08-10T09:25:41.651Z,71.90
2022-08-10T09:27:22.594Z,72.30
2022-08-10T09:29:12.651Z,73.20
2022-08-10T09:31:18.669Z,74.20
2022-08-10T09:36:15.601Z,73.80
2022-08-10T09:36:26.782Z,72.50
2022-08-10T09:36:49.288Z,72.80
2022-08-10T09:38:34.455Z,72.50
2022-08-10T09:41:00.337Z,70.40
2022-08-10T09:42:15.170Z,70.90
2022-08-10T09:43:57.418Z,70.30
2022-08-10T09:45:39.388Z,68.50
2022-08-10T09:48:00.102Z,70.30
2022-08-10T09:49:52.978Z,69.70
2022-08-10T09:51:47.658Z,71.30
2022-08-10T09:53:29.204Z,70.30
2022-08-10T09:55:12.441Z,70.80
2022-08-10T09:56:50.795Z,70.40
2022-08-10T09:58:35.211Z,69.70
2022-08-10T10:00:12.584Z,68.10
2022-08-10T10:02:00.499Z,69.40
2022-08-10T10:03:44.586Z,70.70
2022-08-10T10:05:29.006Z,69.70
2022-08-10T10:07:06.477Z,69.40
2022-08-10T10:08:49.774Z,71.40
2022-08-10T10:10:36.706Z,68.90
2022-08-10T10:12:28.521Z,69.70
2022-08-10T10:14:13.726Z,69.00
2022-08-10T10:15:55.671Z,68.40
2022-08-10T10:17:41.708Z,68.80
2022-08-10T10:19:35.214Z,68.60
2022-08-10T10:21:50.034Z,68.10
2022-08-10T10:23:23.355Z,68.00
2022-08-10T10:25:02.700Z,67.80
2022-08-10T10:26:57.854Z,69.60
2022-08-10T10:29:11.389Z,70.10
2022-08-10T10:30:42.695Z,70.50
2022-08-10T10:32:22.536Z,69.50
2022-08-10T10:34:06.561Z,69.80
2022-08-10T10:35:47.008Z,69.10
2022-08-10T10:37:21.864Z,69.10
2022-08-10T10:39:19.438Z,68.60
2022-08-10T10:41:01.474Z,69.50
2022-08-10T10:42:45.758Z,69.00
2022-08-10T10:44:32.473Z,70.10
2022-08-10T10:46:12.579Z,68.60
2022-08-10T10:48:00.386Z,68.10
2022-08-10T10:49:46.432Z,67.70
2022-08-10T10:51:26.842Z,67.20
2022-08-10T10:53:08.403Z,68.00
2022-08-10T10:54:49.130Z,68.50
2022-08-10T10:56:31.946Z,67.20
2022-08-10T10:58:20.059Z,68.20
2022-08-10T11:00:03.343Z,67.10
2022-08-10T11:01:43.856Z,67.90
2022-08-10T11:03:27.788Z,67.50
2022-08-10T11:05:12.304Z,66.60
2022-08-10T11:06:58.114Z,66.70
2022-08-10T11:08:35.467Z,67.30
2022-08-10T11:10:33.360Z,66.30
2022-08-10T11:12:17.442Z,66.40
2022-08-10T11:14:26.970Z,66.90
2022-08-10T11:16:07.398Z,67.80
2022-08-10T11:17:46.942Z,67.60
2022-08-10T11:19:26.393Z,67.60
2022-08-10T11:21:32.432Z,68.50
2022-08-10T11:23:19.971Z,67.50
2022-08-10T11:25:00.199Z,67.90
2022-08-10T11:26:41.442Z,67.80
2022-08-10T11:28:20.566Z,67.90
2022-08-10T11:30:00.230Z,68.20
2022-08-10T11:31:40.858Z,68.20
2022-08-10T11:33:30.940Z,66.50
2022-08-10T11:35:21.276Z,68.10
2022-08-10T11:37:00.634Z,67.40
2022-08-10T11:38:52.256Z,68.30
2022-08-10T11:40:39.992Z,67.80
2022-08-10T11:42:31.592Z,65.90
2022-08-10T11:44:12.624Z,65.60
2022-08-10T11:45:52.014Z,66.00
2022-08-10T11:47:34.864Z,65.50
2022-08-10T11:49:12.259Z,65.70
2022-08-10T11:50:50.536Z,65.60
2022-08-10T11:52:35.351Z,66.20
2022-08-10T11:54:15.397Z,66.20
2022-08-10T11:55:55.340Z,66.60
2022-08-10T11:57:53.557Z,66.00
2022-08-10T11:59:44.839Z,65.30
2022-08-10T12:01:23.559Z,65.80
2022-08-10T12:02:59.261Z,65.00
2022-08-10T12:04:33.892Z,65.80
2022-08-10T12:06:13.432Z,64.80
2022-08-10T12:10:04.739Z,65.40
2022-08-10T12:10:08.932Z,63.90
2022-08-10T12:11:37.574Z,64.40
2022-08-10T12:13:13.546Z,63.60
2022-08-10T12:14:54.365Z,63.30
2022-08-10T12:16:30.228Z,63.60
2022-08-10T12:18:06.859Z,64.70
2022-08-10T12:19:59.282Z,64.90
2022-08-10T12:21:42.768Z,64.90
2022-08-10T12:23:26.621Z,64.40
2022-08-10T12:25:03.616Z,64.70
2022-08-10T12:26:40.604Z,65.40
2022-08-10T12:28:19.440Z,66.30
2022-08-10T12:30:02.891Z,66.70
2022-08-10T12:31:40.798Z,67.10
2022-08-10T12:33:21.991Z,66.40
2022-08-10T12:35:00.736Z,65.00
2022-08-10T12:36:40.699Z,65.30
2022-08-10T12:38:21.280Z,64.80
2022-08-10T12:40:33.965Z,64.30
2022-08-10T12:42:06.411Z,63.30
2022-08-10T12:44:07.316Z,65.60
2022-08-10T12:45:44.517Z,65.70
2022-08-10T12:47:28.924Z,65.30
2022-08-10T12:49:08.435Z,65.30
2022-08-10T12:50:44.217Z,65.80
2022-08-10T12:52:23.059Z,65.50
2022-08-10T12:54:08.427Z,63.40
2022-08-10T12:55:43.032Z,63.10
2022-08-10T12:57:18.108Z,63.30
2022-08-10T12:58:57.417Z,62.60
2022-08-10T13:00:34.351Z,63.40
2022-08-10T13:02:10.869Z,63.70
2022-08-10T13:04:23.026Z,63.70
2022-08-10T13:06:02.647Z,63.40
2022-08-10T13:08:27.358Z,63.20
2022-08-10T13:09:31.381Z,64.30
2022-08-10T13:11:26.251Z,63.30
2022-08-10T13:13:00.728Z,63.20
2022-08-10T13:14:38.347Z,63.70
2022-08-10T13:16:11.292Z,62.90
2022-08-10T13:17:52.533Z,62.10
2022-08-10T13:19:41.673Z,62.50
2022-08-10T13:21:23.434Z,63.00
2022-08-10T13:23:00.816Z,63.20
2022-08-10T13:24:37.657Z,63.20
2022-08-10T13:26:15.934Z,62.90
2022-08-10T13:28:01.292Z,62.50
2022-08-10T13:29:44.880Z,62.60
2022-08-10T13:32:03.421Z,63.00
2022-08-10T13:34:03.768Z,62.60
2022-08-10T13:35:17.399Z,63.20
2022-08-10T13:36:52.432Z,63.40
2022-08-10T13:38:28.644Z,63.20
2022-08-10T13:40:02.696Z,63.70
2022-08-10T13:41:40.548Z,63.40
2022-08-10T13:43:17.161Z,63.60
2022-08-10T13:44:53.743Z,63.50
2022-08-10T13:46:27.066Z,62.80
2022-08-10T13:48:11.033Z,63.40
2022-08-10T13:49:48.265Z,62.30
2022-08-10T13:51:57.050Z,61.80
2022-08-10T13:53:19.474Z,62.20
2022-08-10T13:54:55.204Z,62.30
2022-08-10T13:56:30.623Z,62.70
2022-08-10T13:58:04.520Z,62.90
2022-08-10T14:00:35.062Z,63.40
2022-08-10T14:01:33.341Z,62.60
2022-08-10T14:03:10.548Z,63.10
2022-08-10T14:04:45.607Z,63.10
2022-08-10T14:06:19.910Z,62.80
2022-08-10T14:08:00.225Z,62.70
2022-08-10T14:09:35.515Z,63.40
2022-08-10T14:11:13.913Z,61.20
2022-08-10T14:12:49.207Z,61.90
2022-08-10T14:14:23.324Z,61.20
2022-08-10T14:15:58.204Z,62.80
2022-08-10T14:17:32.347Z,62.00
2022-08-10T14:19:11.466Z,62.10
2022-08-10T14:20:45.320Z,61.90
2022-08-10T14:22:19.665Z,61.70
2022-08-10T14:24:07.666Z,60.80
2022-08-10T14:25:49.583Z,60.90
2022-08-10T14:27:24.378Z,61.10
2022-08-10T14:29:19.760Z,61.30
2022-08-10T14:30:59.552Z,61.40
2022-08-10T14:32:40.109Z,61.50
2022-08-10T14:34:14.783Z,61.90
2022-08-10T14:36:20.848Z,62.30
2022-08-10T14:37:48.011Z,61.30
2022-08-10T14:39:25.348Z,61.20
2022-08-10T14:41:01.817Z,61.50
2022-08-10T14:42:43.435Z,61.60
2022-08-10T14:44:19.871Z,61.50
2022-08-10T14:46:01.397Z,61.70
2022-08-10T14:47:52.454Z,61.40
2022-08-10T14:49:30.122Z,61.80
2022-08-10T14:51:28.109Z,62.00
2022-08-10T14:53:19.751Z,61.60
2022-08-10T14:54:54.864Z,62.10
2022-08-10T14:56:30.692Z,62.60
2022-08-10T14:58:20.243Z,61.40
2022-08-10T15:00:24.134Z,61.50
2022-08-10T15:02:38.236Z,61.80
2022-08-10T15:04:00.954Z,61.70
2022-08-10T15:05:41.698Z,61.90
2022-08-10T15:07:21.665Z,61.70
2022-08-10T15:09:02.311Z,61.00
2022-08-10T15:10:36.027Z,61.40
2022-08-10T15:12:13.696Z,60.50
2022-08-10T15:14:12.318Z,60.80
2022-08-10T15:16:12.663Z,60.70
2022-08-10T15:17:42.977Z,61.20
2022-08-10T15:20:01.057Z,60.30
2022-08-10T15:21:17.361Z,60.90
2022-08-10T15:22:53.572Z,60.90
2022-08-10T15:24:47.708Z,61.50
2022-08-10T15:26:22.912Z,61.10
2022-08-10T15:28:05.462Z,61.60
2022-08-10T15:29:57.590Z,61.30
2022-08-10T15:31:33.774Z,61.00
2022-08-10T15:33:59.293Z,62.00
2022-08-10T15:35:36.779Z,61.50
2022-08-10T15:37:36.901Z,61.50
2022-08-10T15:39:16.722Z,62.20
2022-08-10T15:41:11.078Z,62.20
2022-08-10T15:42:58.357Z,61.10
2022-08-10T15:44:38.259Z,60.80
2022-08-10T15:46:16.363Z,61.30
2022-08-10T15:48:02.468Z,61.30
2022-08-10T15:49:45.324Z,61.40
2022-08-10T15:51:28.586Z,61.50
2022-08-10T15:53:16.580Z,61.40
2022-08-10T15:54:57.697Z,61.40
2022-08-10T15:56:34.220Z,61.10
2022-08-10T15:58:11.641Z,60.90
2022-08-10T15:59:48.180Z,61.20
2022-08-10T16:02:04.724Z,61.30
2022-08-10T16:03:37.762Z,60.50
2022-08-10T16:05:16.024Z,60.60
2022-08-10T16:06:54.419Z,61.20
2022-08-10T16:08:36.067Z,61.30
2022-08-10T16:10:33.278Z,61.00
2022-08-10T16:12:14.604Z,60.80
2022-08-10T16:13:59.608Z,61.20
2022-08-10T16:15:35.694Z,61.00
2022-08-10T16:17:13.381Z,60.90
2022-08-10T16:18:48.445Z,61.00
2022-08-10T16:20:25.046Z,61.90
2022-08-10T16:22:34.295Z,61.50
2022-08-10T16:24:15.250Z,62.10
2022-08-10T16:25:59.435Z,61.00
2022-08-10T16:27:37.412Z,61.00
2022-08-10T16:29:14.024Z,61.00
2022-08-10T16:30:50.496Z,61.30
2022-08-10T16:32:26.274Z,61.30
2022-08-10T16:34:01.151Z,60.70
2022-08-10T16:35:35.704Z,60.90
2022-08-10T16:37:11.004Z,60.40
2022-08-10T16:38:46.060Z,60.70
2022-08-10T16:40:21.426Z,60.20
2022-08-10T16:42:03.456Z,60.10
2022-08-10T16:43:38.559Z,60.50
2022-08-10T16:45:15.911Z,60.70
2022-08-10T16:46:49.679Z,60.90
2022-08-10T16:48:50.001Z,59.80
2022-08-10T16:50:24.328Z,59.70
2022-08-10T16:51:57.873Z,59.60
2022-08-10T16:53:33.074Z,60.00
2022-08-10T16:55:24.030Z,60.30
2022-08-10T16:57:07.516Z,60.20
2022-08-10T16:58:44.379Z,60.10
2022-08-10T17:00:22.301Z,60.20
2022-08-10T17:01:56.445Z,60.60
2022-08-10T17:04:07.172Z,60.70
2022-08-10T17:06:01.589Z,60.60
2022-08-10T17:07:35.195Z,60.40
2022-08-10T17:09:15.582Z,60.30
2022-08-10T17:10:51.873Z,60.50
2022-08-10T17:12:27.930Z,60.80
2022-08-10T17:14:02.857Z,60.40
2022-08-10T17:15:36.167Z,60.70
2022-08-10T17:17:12.869Z,61.00
2022-08-10T17:18:48.261Z,60.50
2022-08-10T17:20:30.978Z,60.80
2022-08-10T17:22:11.523Z,60.90
2022-08-10T17:23:48.473Z,60.60
2022-08-10T17:25:46.200Z,61.10
2022-08-10T17:28:04.125Z,60.70
2022-08-10T17:29:58.228Z,60.50
2022-08-10T17:31:43.654Z,60.30
2022-08-10T17:33:16.234Z,60.40
2022-08-10T17:34:57.036Z,61.00
2022-08-10T17:36:34.252Z,61.00
2022-08-10T17:38:10.647Z,61.00
2022-08-10T17:39:49.650Z,60.40
2022-08-10T17:41:26.234Z,60.40
2022-08-10T17:43:00.267Z,60.70
2022-08-10T17:44:37.554Z,60.50
2022-08-10T17:46:12.614Z,60.60
2022-08-10T17:47:49.673Z,60.70
2022-08-10T17:49:22.775Z,60.90
2022-08-10T17:50:58.106Z,60.60
2022-08-10T17:52:33.988Z,60.70
2022-08-10T17:54:09.932Z,60.90
2022-08-10T17:55:46.923Z,60.80
2022-08-10T17:57:22.044Z,60.70
2022-08-10T17:58:58.407Z,60.90
2022-08-10T18:00:33.070Z,60.90
2022-08-10T18:02:08.948Z,60.80
2022-08-10T18:03:44.856Z,60.90
2022-08-10T18:05:17.911Z,60.90
2022-08-10T18:06:57.158Z,60.70
2022-08-10T18:08:37.443Z,61.10
2022-08-10T18:10:14.981Z,61.20
2022-08-10T18:11:50.163Z,61.10
2022-08-10T18:13:24.876Z,61.40
2022-08-10T18:15:01.267Z,61.50
2022-08-10T18:16:35.440Z,61.70
2022-08-10T18:18:20.682Z,61.80
2022-08-10T18:19:57.677Z,61.80
2022-08-10T18:21:32.024Z,61.90
2022-08-10T18:23:07.695Z,62.00
2022-08-10T18:24:42.288Z,62.10
2022-08-10T18:26:18.471Z,62.30
2022-08-10T18:28:04.188Z,62.10
2022-08-10T18:29:41.231Z,62.10
2022-08-10T18:31:20.723Z,62.10
2022-08-10T18:32:57.167Z,62.10
2022-08-10T18:34:32.372Z,62.20
2022-08-10T18:36:08.450Z,62.30
2022-08-10T18:37:42.415Z,62.50
2022-08-10T18:39:23.573Z,62.50
2022-08-10T18:41:01.629Z,62.80
2022-08-10T18:42:41.739Z,62.60
2022-08-10T18:44:17.270Z,62.40
2022-08-10T18:45:52.948Z,62.70
2022-08-10T18:47:33.819Z,62.60
2022-08-10T18:49:11.505Z,62.70
2022-08-10T18:50:52.120Z,62.80
2022-08-10T18:52:28.700Z,62.80
2022-08-10T18:54:07.726Z,62.90
2022-08-10T18:56:12.318Z,63.00
2022-08-10T18:58:11.551Z,63.10
2022-08-10T19:00:08.129Z,63.10
2022-08-10T19:02:02.428Z,63.40
2022-08-10T19:03:58.419Z,64.20
2022-08-10T19:05:53.610Z,63.50
2022-08-10T19:07:46.339Z,63.80
2022-08-10T19:09:45.967Z,63.90
2022-08-10T19:11:34.679Z,63.70
2022-08-10T19:13:14.611Z,63.90
2022-08-10T19:14:55.656Z,64.30
2022-08-10T19:16:36.686Z,64.50
2022-08-10T19:18:20.897Z,64.60
2022-08-10T19:20:14.098Z,65.20
2022-08-10T19:21:54.729Z,65.40
2022-08-10T19:23:38.643Z,64.70
2022-08-10T19:26:41.264Z,64.60
2022-08-10T19:27:30.631Z,64.50
2022-08-10T19:30:09.520Z,64.50
2022-08-10T19:31:19.926Z,64.50
2022-08-10T19:33:06.602Z,64.60
2022-08-10T19:34:51.208Z,64.90
2022-08-10T19:36:36.546Z,65.00
2022-08-10T19:38:16.828Z,65.00
2022-08-10T19:40:02.609Z,65.00
2022-08-10T19:41:44.655Z,65.10
2022-08-10T19:43:59.326Z,65.20
2022-08-10T19:46:01.303Z,65.40
2022-08-10T19:47:28.885Z,65.60
2022-08-10T19:49:06.965Z,65.60
2022-08-10T19:50:45.611Z,65.70
2022-08-10T19:52:27.938Z,65.80
2022-08-10T19:54:09.628Z,65.80
2022-08-10T19:55:51.086Z,66.10
2022-08-10T19:57:34.364Z,66.00
2022-08-10T20:00:17.101Z,66.00
2022-08-10T20:01:10.699Z,66.10
2022-08-10T20:02:51.899Z,66.10
2022-08-10T20:04:32.068Z,66.20
2022-08-10T20:06:17.907Z,66.30
2022-08-10T20:07:58.915Z,66.30
2022-08-10T20:09:44.033Z,66.40
2022-08-10T20:11:44.346Z,66.40
2022-08-10T20:13:26.564Z,66.50
2022-08-10T20:15:04.996Z,66.90
2022-08-10T20:16:42.445Z,66.90
2022-08-10T20:18:23.798Z,67.00
2022-08-10T20:20:05.641Z,67.30
2022-08-10T20:21:46.910Z,67.60
2022-08-10T20:23:24.408Z,67.80
2022-08-10T20:25:02.788Z,68.00
2022-08-10T20:26:40.932Z,68.70
2022-08-10T20:28:20.217Z,68.90
2022-08-10T20:29:59.430Z,69.20
2022-08-10T20:31:41.940Z,69.60
2022-08-10T20:33:23.493Z,69.90
2022-08-10T20:35:03.583Z,70.20
2022-08-10T20:36:47.163Z,70.30
2022-08-10T20:38:27.518Z,70.70
2022-08-10T20:40:10.688Z,70.40
2022-08-10T20:42:00.664Z,71.00
2022-08-10T20:43:42.614Z,71.10
2022-08-10T20:45:22.362Z,71.30
2022-08-10T20:47:03.935Z,71.70
2022-08-10T20:48:43.702Z,71.80
2022-08-10T20:50:28.737Z,72.10
2022-08-10T20:52:04.435Z,72.20
2022-08-10T20:53:45.200Z,72.00
2022-08-10T20:55:19.416Z,72.60
2022-08-10T20:58:04.626Z,72.60
2022-08-10T20:59:33.617Z,73.00
2022-08-10T21:01:16.971Z,73.10
2022-08-10T21:03:07.539Z,73.30
2022-08-10T21:04:52.439Z,73.40
2022-08-10T21:06:43.431Z,73.40
2022-08-10T21:08:29.943Z,74.00
2022-08-10T21:10:13.783Z,74.30
2022-08-10T21:12:01.351Z,74.20
2022-08-10T21:13:59.886Z,74.40
2022-08-10T21:15:49.165Z,74.60
2022-08-10T21:17:42.242Z,74.40
2022-08-10T21:19:56.017Z,74.70
2022-08-10T21:21:58.924Z,75.00
2022-08-10T21:23:37.861Z,75.00
2022-08-10T21:25:15.712Z,75.00
2022-08-10T21:26:59.076Z,74.90
2022-08-10T21:29:06.476Z,75.30
2022-08-10T21:30:51.126Z,75.60
2022-08-10T21:32:39.960Z,75.60
2022-08-10T21:34:40.791Z,75.60
2022-08-10T21:36:32.092Z,75.90
2022-08-10T21:38:08.807Z,75.80
2022-08-10T21:39:55.073Z,76.20
2022-08-10T21:42:00.067Z,76.10
2022-08-10T21:44:02.163Z,76.20
2022-08-10T21:46:04.301Z,76.40
2022-08-10T21:48:17.204Z,76.50
2022-08-10T21:50:15.815Z,76.30
2022-08-10T21:54:30.463Z,76.90
2022-08-10T21:56:29.505Z,76.80